createdAt,value
2019-05-15T00:00:18.697Z,4.00
2019-05-15T00:01:19.278Z,5.30
2019-05-15T00:02:18.701Z,3.40
2019-05-15T00:03:19.686Z,4.80
2019-05-15T00:04:18.787Z,4.40
2019-05-15T00:05:18.948Z,4.20
2019-05-15T00:06:19.162Z,4.70
2019-05-15T00:07:18.620Z,3.80
2019-05-15T00:08:18.658Z,3.60
2019-05-15T00:09:19.249Z,3.80
2019-05-15T00:10:18.697Z,3.50
2019-05-15T00:11:19.185Z,4.40
2019-05-15T00:12:19.004Z,5.10
2019-05-15T00:13:18.636Z,4.70
2019-05-15T00:14:18.601Z,3.80
2019-05-15T00:15:18.522Z,4.70
2019-05-15T00:16:18.601Z,3.00
2019-05-15T00:17:19.132Z,5.60
2019-05-15T00:18:18.715Z,4.70
2019-05-15T00:19:18.896Z,4.50
2019-05-15T00:20:20.270Z,5.60
2019-05-15T00:21:18.454Z,4.80
2019-05-15T00:22:18.574Z,3.30
2019-05-15T00:23:18.431Z,4.50
2019-05-15T00:24:18.451Z,3.70
2019-05-15T00:25:18.946Z,4.10
2019-05-15T00:26:18.490Z,5.30
2019-05-15T00:27:20.231Z,5.30
2019-05-15T00:28:18.620Z,3.10
2019-05-15T00:29:19.730Z,4.00
2019-05-15T00:31:19.485Z,3.50
2019-05-15T00:33:19.500Z,5.30
2019-05-15T00:34:18.438Z,3.60
2019-05-15T00:35:18.565Z,4.10
2019-05-15T00:36:19.201Z,5.20
2019-05-15T00:37:18.390Z,3.10
2019-05-15T00:38:18.757Z,5.20
2019-05-15T00:39:18.983Z,4.80
2019-05-15T00:40:18.525Z,3.80
2019-05-15T00:41:18.580Z,4.50
2019-05-15T00:42:18.999Z,4.40
2019-05-15T00:43:18.418Z,5.00
2019-05-15T00:44:18.761Z,4.50
2019-05-15T00:45:18.612Z,4.00
2019-05-15T00:46:18.429Z,5.50
2019-05-15T00:47:18.227Z,3.10
2019-05-15T00:48:18.452Z,5.70
2019-05-15T00:49:18.929Z,3.60
2019-05-15T00:50:18.420Z,4.60
2019-05-15T00:51:19.594Z,4.00
2019-05-15T00:52:18.179Z,3.80
2019-05-15T00:53:19.621Z,4.40
2019-05-15T00:54:19.196Z,5.20
2019-05-15T00:55:19.063Z,5.30
2019-05-15T00:56:19.526Z,4.30
2019-05-15T00:57:19.184Z,4.00
2019-05-15T00:58:20.056Z,5.70
2019-05-15T00:59:26.285Z,4.60
2019-05-15T01:00:18.992Z,4.00
2019-05-15T01:01:19.286Z,4.20
2019-05-15T01:02:17.999Z,4.90
2019-05-15T01:03:18.332Z,4.40
2019-05-15T01:04:18.781Z,3.40
2019-05-15T01:05:18.623Z,4.60
2019-05-15T01:06:19.040Z,4.00
2019-05-15T01:07:18.821Z,4.70
2019-05-15T01:08:19.244Z,7.10
2019-05-15T01:09:18.697Z,3.60
2019-05-15T01:10:19.355Z,7.80
2019-05-15T01:11:19.191Z,3.70
2019-05-15T01:12:18.500Z,4.30
2019-05-15T01:13:19.025Z,3.90
2019-05-15T01:14:18.615Z,6.40
2019-05-15T01:15:18.399Z,4.50
2019-05-15T01:16:18.664Z,3.80
2019-05-15T01:17:18.475Z,6.00
2019-05-15T01:18:18.722Z,5.10
2019-05-15T01:19:18.555Z,4.70
2019-05-15T01:20:18.936Z,5.10
2019-05-15T01:21:18.774Z,4.10
2019-05-15T01:22:19.506Z,5.50
2019-05-15T01:23:18.772Z,4.30
2019-05-15T01:24:18.874Z,4.70
2019-05-15T01:25:18.632Z,5.20
2019-05-15T01:26:18.905Z,4.10
2019-05-15T01:27:18.432Z,5.00
2019-05-15T01:28:18.359Z,5.50
2019-05-15T01:29:18.240Z,4.50
2019-05-15T01:30:18.009Z,5.80
2019-05-15T01:31:19.029Z,4.30
2019-05-15T01:32:19.081Z,4.70
2019-05-15T01:33:19.030Z,4.50
2019-05-15T01:34:18.497Z,4.10
2019-05-15T01:35:18.096Z,4.80
2019-05-15T01:36:19.298Z,5.60
2019-05-15T01:37:18.910Z,3.90
2019-05-15T01:38:18.738Z,4.90
2019-05-15T01:39:18.462Z,5.80
2019-05-15T01:40:18.267Z,4.70
2019-05-15T01:41:18.971Z,3.80
2019-05-15T01:42:18.601Z,6.20
2019-05-15T01:43:18.663Z,5.80
2019-05-15T01:44:17.950Z,5.80
2019-05-15T01:45:18.931Z,5.00
2019-05-15T01:46:19.073Z,5.50
2019-05-15T01:47:18.982Z,4.90
2019-05-15T01:48:18.978Z,6.40
2019-05-15T01:49:18.643Z,8.20
2019-05-15T01:50:18.531Z,4.20
2019-05-15T01:51:18.497Z,5.20
2019-05-15T01:52:18.713Z,6.00
2019-05-15T01:53:18.728Z,5.20
2019-05-15T01:54:18.698Z,5.90
2019-05-15T01:55:18.174Z,4.70
2019-05-15T01:56:18.753Z,5.10
2019-05-15T01:57:18.182Z,5.30
2019-05-15T01:58:18.605Z,4.00
2019-05-15T01:59:18.938Z,5.00
2019-05-15T02:00:18.861Z,4.60
2019-05-15T02:01:19.115Z,4.90
2019-05-15T02:02:18.743Z,4.60
2019-05-15T02:03:18.438Z,4.70
2019-05-15T02:04:19.688Z,4.90
2019-05-15T02:05:18.793Z,4.40
2019-05-15T02:06:18.939Z,4.30
2019-05-15T02:07:18.714Z,5.50
2019-05-15T02:08:19.158Z,5.80
2019-05-15T02:09:18.577Z,6.50
2019-05-15T02:10:18.637Z,4.50
2019-05-15T02:11:18.070Z,5.50
2019-05-15T02:12:19.089Z,5.70
2019-05-15T02:13:18.692Z,3.80
2019-05-15T02:14:18.966Z,5.10
2019-05-15T02:15:18.989Z,3.90
2019-05-15T02:16:19.177Z,3.50
2019-05-15T02:17:18.980Z,4.80
2019-05-15T02:18:19.199Z,5.70
2019-05-15T02:19:19.241Z,3.90
2019-05-15T02:20:18.740Z,5.30
2019-05-15T02:21:18.324Z,4.10
2019-05-15T02:22:18.937Z,4.40
2019-05-15T02:23:18.937Z,5.40
2019-05-15T02:24:18.920Z,5.70
2019-05-15T02:25:18.543Z,3.30
2019-05-15T02:26:18.892Z,6.60
2019-05-15T02:27:18.705Z,5.20
2019-05-15T02:28:18.354Z,4.80
2019-05-15T02:29:20.369Z,4.90
2019-05-15T02:30:28.323Z,4.00
2019-05-15T02:31:19.633Z,6.90
2019-05-15T02:32:19.282Z,3.60
2019-05-15T02:33:18.904Z,4.70
2019-05-15T02:34:19.451Z,5.30
2019-05-15T02:35:18.534Z,5.10
2019-05-15T02:36:20.235Z,5.50
2019-05-15T02:37:19.216Z,4.40
2019-05-15T02:38:20.016Z,5.20
2019-05-15T02:39:18.937Z,5.10
2019-05-15T02:40:19.152Z,4.70
2019-05-15T02:41:19.527Z,6.30
2019-05-15T02:42:19.255Z,4.10
2019-05-15T02:43:19.065Z,5.60
2019-05-15T02:44:19.760Z,4.90
2019-05-15T02:45:19.514Z,5.30
2019-05-15T02:46:19.477Z,6.00
2019-05-15T02:47:19.689Z,4.20
2019-05-15T02:48:19.963Z,4.00
2019-05-15T02:49:19.196Z,5.60
2019-05-15T02:50:20.222Z,4.60
2019-05-15T02:51:19.426Z,4.90
2019-05-15T02:52:19.623Z,5.80
2019-05-15T02:53:18.940Z,4.70
2019-05-15T02:54:19.672Z,4.40
2019-05-15T02:55:19.553Z,6.00
2019-05-15T02:56:20.034Z,5.60
2019-05-15T02:57:19.234Z,3.40
2019-05-15T02:58:21.108Z,3.90
2019-05-15T02:59:19.502Z,5.70
2019-05-15T03:00:32.714Z,5.70
2019-05-15T03:01:18.907Z,4.90
2019-05-15T03:02:19.091Z,5.60
2019-05-15T03:03:16.705Z,6.20
2019-05-15T03:04:19.680Z,5.20
2019-05-15T03:05:19.584Z,6.10
2019-05-15T03:06:19.238Z,5.40
2019-05-15T03:07:19.347Z,6.90
2019-05-15T03:08:19.631Z,5.10
2019-05-15T03:09:18.804Z,5.20
2019-05-15T03:10:19.723Z,7.70
2019-05-15T03:11:19.006Z,6.20
2019-05-15T03:12:19.578Z,6.60
2019-05-15T03:13:18.856Z,5.40
2019-05-15T03:14:16.558Z,6.60
2019-05-15T03:16:19.322Z,5.40
2019-05-15T03:18:19.495Z,4.70
2019-05-15T03:20:18.669Z,4.40
2019-05-15T03:21:18.800Z,5.00
2019-05-15T03:22:19.363Z,6.30
2019-05-15T03:23:19.764Z,4.20
2019-05-15T03:24:19.205Z,6.10
2019-05-15T03:26:19.769Z,6.30
2019-05-15T03:28:19.051Z,4.50
2019-05-15T03:30:21.813Z,6.40
2019-05-15T03:31:35.197Z,6.00
2019-05-15T03:32:33.446Z,5.00
2019-05-15T03:33:20.860Z,5.50
2019-05-15T03:34:23.198Z,5.10
2019-05-15T03:35:22.004Z,5.80
2019-05-15T03:36:23.091Z,6.40
2019-05-15T03:37:22.156Z,7.20
2019-05-15T03:38:19.346Z,5.10
2019-05-15T03:39:18.942Z,5.30
2019-05-15T03:41:19.468Z,5.30
2019-05-15T03:42:19.122Z,6.90
2019-05-15T03:43:18.596Z,6.60
2019-05-15T03:45:19.295Z,6.90
2019-05-15T03:47:19.446Z,6.60
2019-05-15T03:49:19.715Z,6.60
2019-05-15T03:51:19.894Z,7.20
2019-05-15T03:52:19.023Z,10.00
2019-05-15T03:53:18.945Z,9.20
2019-05-15T03:54:19.211Z,7.90
2019-05-15T03:55:18.586Z,7.40
2019-05-15T03:56:19.053Z,6.40
2019-05-15T03:57:20.078Z,6.20
2019-05-15T03:59:19.232Z,6.30
2019-05-15T04:00:19.480Z,7.10
2019-05-15T04:01:30.171Z,6.20
2019-05-15T04:02:19.355Z,6.40
2019-05-15T04:03:20.260Z,7.60
2019-05-15T04:04:18.854Z,7.90
2019-05-15T04:05:19.896Z,7.30
2019-05-15T04:06:19.050Z,7.30
2019-05-15T04:07:19.011Z,6.00
2019-05-15T04:08:19.173Z,6.50
2019-05-15T04:09:19.051Z,7.10
2019-05-15T04:10:15.936Z,5.70
2019-05-15T04:11:20.351Z,5.90
2019-05-15T04:12:15.955Z,8.10
2019-05-15T04:13:19.895Z,7.00
2019-05-15T04:14:19.148Z,7.10
2019-05-15T04:16:19.066Z,6.10
2019-05-15T04:18:19.758Z,5.50
2019-05-15T04:20:19.880Z,6.70
2019-05-15T04:22:19.513Z,8.30
2019-05-15T04:23:19.227Z,6.20
2019-05-15T04:24:18.824Z,4.80
2019-05-15T04:26:19.360Z,6.50
2019-05-15T04:27:20.308Z,5.80
2019-05-15T04:28:19.115Z,6.60
2019-05-15T04:29:19.758Z,6.70
2019-05-15T04:30:18.791Z,7.90
2019-05-15T04:31:19.641Z,5.50
2019-05-15T04:32:15.720Z,4.30
2019-05-15T04:33:19.965Z,5.60
2019-05-15T04:34:15.753Z,6.30
2019-05-15T04:37:18.867Z,6.80
2019-05-15T04:38:19.608Z,6.40
2019-05-15T04:39:19.062Z,9.50
2019-05-15T04:40:15.734Z,7.00
2019-05-15T04:41:15.599Z,5.10
2019-05-15T04:42:15.643Z,5.60
2019-05-15T04:43:15.589Z,5.90
2019-05-15T04:44:15.695Z,6.10
2019-05-15T04:45:15.562Z,5.90
2019-05-15T04:46:19.354Z,6.00
2019-05-15T04:47:15.534Z,5.70
2019-05-15T04:48:15.621Z,6.90
2019-05-15T04:49:15.571Z,4.50
2019-05-15T04:50:15.598Z,5.00
2019-05-15T04:51:15.486Z,5.50
2019-05-15T04:52:15.511Z,5.00
2019-05-15T04:53:19.049Z,5.20
2019-05-15T04:54:15.558Z,4.50
2019-05-15T04:55:15.444Z,6.50
2019-05-15T04:56:15.535Z,4.70
2019-05-15T04:57:15.436Z,3.90
2019-05-15T04:59:19.509Z,5.40
2019-05-15T05:00:15.468Z,4.40
2019-05-15T05:01:15.400Z,4.70
2019-05-15T05:02:19.523Z,4.60
2019-05-15T05:03:19.370Z,5.70
2019-05-15T05:04:15.542Z,4.20
2019-05-15T05:05:15.333Z,4.70
2019-05-15T05:06:18.794Z,4.60
2019-05-15T05:07:15.323Z,6.50
2019-05-15T05:08:15.426Z,5.80
2019-05-15T05:09:15.343Z,4.10
2019-05-15T05:10:15.341Z,4.40
2019-05-15T05:11:15.284Z,5.30
2019-05-15T05:12:15.344Z,3.40
2019-05-15T05:13:15.270Z,4.20
2019-05-15T05:14:15.395Z,5.30
2019-05-15T05:15:15.278Z,6.70
2019-05-15T05:16:15.281Z,3.80
2019-05-15T05:17:15.246Z,4.50
2019-05-15T05:18:15.286Z,4.40
2019-05-15T05:19:15.202Z,4.20
2019-05-15T05:20:15.327Z,4.40
2019-05-15T05:21:15.174Z,3.90
2019-05-15T05:22:15.157Z,4.40
2019-05-15T05:23:15.153Z,7.30
2019-05-15T05:24:15.247Z,4.60
2019-05-15T05:25:15.179Z,4.30
2019-05-15T05:26:15.117Z,4.60
2019-05-15T05:27:15.107Z,6.70
2019-05-15T05:28:15.152Z,3.80
2019-05-15T05:29:15.072Z,3.20
2019-05-15T05:30:15.188Z,4.70
2019-05-15T05:31:15.067Z,3.20
2019-05-15T05:32:30.500Z,5.50
2019-05-15T05:33:17.865Z,5.20
2019-05-15T05:34:15.093Z,4.00
2019-05-15T05:35:15.045Z,2.90
2019-05-15T05:36:15.125Z,3.80
2019-05-15T05:37:15.031Z,3.80
2019-05-15T05:38:15.024Z,5.70
2019-05-15T05:39:17.661Z,3.70
2019-05-15T05:40:18.806Z,4.70
2019-05-15T05:41:14.947Z,4.60
2019-05-15T05:42:15.044Z,2.60
2019-05-15T05:43:14.929Z,3.60
2019-05-15T05:44:14.990Z,3.10
2019-05-15T05:45:14.949Z,3.70
2019-05-15T05:46:15.413Z,5.80
2019-05-15T05:47:14.882Z,3.20
2019-05-15T05:48:14.990Z,5.00
2019-05-15T05:49:14.862Z,2.30
2019-05-15T05:50:14.927Z,4.80
2019-05-15T05:51:14.871Z,3.10
2019-05-15T05:52:14.923Z,10.80
2019-05-15T05:53:14.820Z,3.90
2019-05-15T05:54:14.924Z,5.40
2019-05-15T05:55:14.794Z,2.40
2019-05-15T05:56:14.859Z,5.10
2019-05-15T05:57:14.775Z,3.30
2019-05-15T05:58:14.776Z,3.50
2019-05-15T05:59:14.761Z,4.70
2019-05-15T06:00:14.864Z,3.60
2019-05-15T06:01:14.771Z,3.20
2019-05-15T06:02:14.766Z,2.90
2019-05-15T06:03:14.712Z,3.80
2019-05-15T06:04:14.740Z,3.90
2019-05-15T06:05:14.714Z,2.80
2019-05-15T06:06:14.718Z,4.40
2019-05-15T06:07:14.715Z,3.10
2019-05-15T06:08:14.666Z,3.60
2019-05-15T06:09:14.667Z,2.60
2019-05-15T06:10:14.653Z,2.40
2019-05-15T06:11:14.646Z,2.60
2019-05-15T06:12:14.615Z,2.60
2019-05-15T06:13:14.598Z,2.90
2019-05-15T06:14:14.640Z,6.10
2019-05-15T06:15:14.598Z,4.00
2019-05-15T06:16:14.703Z,4.50
2019-05-15T06:17:14.582Z,4.70
2019-05-15T06:18:14.576Z,2.20
2019-05-15T06:19:14.538Z,3.80
2019-05-15T06:20:14.550Z,3.60
2019-05-15T06:21:14.511Z,3.30
2019-05-15T06:22:14.546Z,2.40
2019-05-15T06:23:14.502Z,4.10
2019-05-15T06:24:14.498Z,3.10
2019-05-15T06:25:14.473Z,2.70
2019-05-15T06:26:14.478Z,2.90
2019-05-15T06:27:14.462Z,5.10
2019-05-15T06:28:14.466Z,4.60
2019-05-15T06:29:14.435Z,2.30
2019-05-15T06:30:19.983Z,2.90
2019-05-15T06:31:15.402Z,3.70
2019-05-15T06:32:14.714Z,2.30
2019-05-15T06:33:14.402Z,3.10
2019-05-15T06:34:14.399Z,3.50
2019-05-15T06:35:14.367Z,2.20
2019-05-15T06:36:14.358Z,3.80
2019-05-15T06:37:14.368Z,2.30
2019-05-15T06:38:14.338Z,4.80
2019-05-15T06:39:14.325Z,3.10
2019-05-15T06:40:14.316Z,3.80
2019-05-15T06:41:14.313Z,3.80
2019-05-15T06:42:14.320Z,3.80
2019-05-15T06:43:14.298Z,2.30
2019-05-15T06:44:14.364Z,3.50
2019-05-15T06:45:14.256Z,2.00
2019-05-15T06:46:14.367Z,3.70
2019-05-15T06:47:14.257Z,2.60
2019-05-15T06:48:14.311Z,3.60
2019-05-15T06:49:14.210Z,2.20
2019-05-15T06:50:14.205Z,3.50
2019-05-15T06:51:14.183Z,2.90
2019-05-15T06:52:14.187Z,2.50
2019-05-15T06:53:14.230Z,4.20
2019-05-15T06:54:14.157Z,6.10
2019-05-15T06:55:14.157Z,3.60
2019-05-15T06:56:14.154Z,3.20
2019-05-15T06:57:14.134Z,2.90
2019-05-15T06:58:14.165Z,2.80
2019-05-15T06:59:14.102Z,2.10
2019-05-15T07:00:14.099Z,2.90
2019-05-15T07:01:14.079Z,4.00
2019-05-15T07:02:14.175Z,3.50
2019-05-15T07:03:21.391Z,3.30
2019-05-15T07:04:15.039Z,5.00
2019-05-15T07:05:14.103Z,2.70
2019-05-15T07:06:14.017Z,2.60
2019-05-15T07:07:14.033Z,1.90
2019-05-15T07:08:14.039Z,4.30
2019-05-15T07:09:14.007Z,3.40
2019-05-15T07:10:13.978Z,2.30
2019-05-15T07:11:13.981Z,4.20
2019-05-15T07:12:13.962Z,2.10
2019-05-15T07:13:14.143Z,3.10
2019-05-15T07:14:13.937Z,3.90
2019-05-15T07:15:13.939Z,2.80
2019-05-15T07:16:13.907Z,2.60
2019-05-15T07:17:13.970Z,2.40
2019-05-15T07:18:13.926Z,2.50
2019-05-15T07:19:13.932Z,2.90
2019-05-15T07:20:13.912Z,2.00
2019-05-15T07:21:13.867Z,2.20
2019-05-15T07:22:13.847Z,1.70
2019-05-15T07:23:13.879Z,2.60
2019-05-15T07:24:13.826Z,4.10
2019-05-15T07:25:13.853Z,2.40
2019-05-15T07:26:13.822Z,2.30
2019-05-15T07:27:13.828Z,2.90
2019-05-15T07:28:13.808Z,3.50
2019-05-15T07:29:13.863Z,3.60
2019-05-15T07:30:13.755Z,3.30
2019-05-15T07:31:13.847Z,2.10
2019-05-15T07:32:13.745Z,2.50
2019-05-15T07:33:13.767Z,3.40
2019-05-15T07:34:13.753Z,3.70
2019-05-15T07:35:13.909Z,3.50
2019-05-15T07:36:13.695Z,4.10
2019-05-15T07:37:13.690Z,3.10
2019-05-15T07:38:13.677Z,2.20
2019-05-15T07:39:13.694Z,3.10
2019-05-15T07:40:13.660Z,2.90
2019-05-15T07:41:13.645Z,2.90
2019-05-15T07:42:13.647Z,3.60
2019-05-15T07:43:13.636Z,4.00
2019-05-15T07:44:13.633Z,2.10
2019-05-15T07:45:13.659Z,3.00
2019-05-15T07:46:13.585Z,2.00
2019-05-15T07:47:13.658Z,3.20
2019-05-15T07:48:13.582Z,1.60
2019-05-15T07:49:13.606Z,3.00
2019-05-15T07:50:13.548Z,4.70
2019-05-15T07:51:13.558Z,2.80
2019-05-15T07:52:13.520Z,1.50
2019-05-15T07:53:13.514Z,2.40
2019-05-15T07:54:13.534Z,3.20
2019-05-15T07:55:13.547Z,2.10
2019-05-15T07:56:13.484Z,4.60
2019-05-15T07:57:13.473Z,2.60
2019-05-15T07:58:13.462Z,1.70
2019-05-15T07:59:13.471Z,2.30
2019-05-15T08:00:13.470Z,2.70
2019-05-15T08:01:13.447Z,1.50
2019-05-15T08:02:13.409Z,1.90
2019-05-15T08:03:13.463Z,3.00
2019-05-15T08:04:24.690Z,2.30
2019-05-15T08:05:14.403Z,1.60
2019-05-15T08:06:13.380Z,1.80
2019-05-15T08:07:13.357Z,4.70
2019-05-15T08:08:13.349Z,1.80
2019-05-15T08:09:13.345Z,2.90
2019-05-15T08:10:13.362Z,3.20
2019-05-15T08:11:21.964Z,2.30
2019-05-15T08:12:14.310Z,1.60
2019-05-15T08:13:13.313Z,3.20
2019-05-15T08:14:13.298Z,3.60
2019-05-15T08:15:13.300Z,2.30
2019-05-15T08:16:13.285Z,2.70
2019-05-15T08:17:13.364Z,3.00
2019-05-15T08:18:13.234Z,3.60
2019-05-15T08:19:13.289Z,4.40
2019-05-15T08:20:13.236Z,4.10
2019-05-15T08:21:13.216Z,5.30
2019-05-15T08:22:15.123Z,2.40
2019-05-15T08:23:13.205Z,5.00
2019-05-15T08:24:13.172Z,2.50
2019-05-15T08:25:26.686Z,2.60
2019-05-15T08:26:14.181Z,2.20
2019-05-15T08:27:13.158Z,3.00
2019-05-15T08:28:13.130Z,2.10
2019-05-15T08:29:13.247Z,2.20
2019-05-15T08:30:13.146Z,3.00
2019-05-15T08:31:13.185Z,4.20
2019-05-15T08:32:13.115Z,1.60
2019-05-15T08:33:13.200Z,2.60
2019-05-15T08:34:16.262Z,1.30
2019-05-15T08:35:13.174Z,2.90
2019-05-15T08:36:13.072Z,1.80
2019-05-15T08:37:13.039Z,3.10
2019-05-15T08:38:14.377Z,2.30
2019-05-15T08:39:13.019Z,2.60
2019-05-15T08:40:13.096Z,2.80
2019-05-15T08:41:15.494Z,3.00
2019-05-15T08:42:12.998Z,2.40
2019-05-15T08:43:12.978Z,3.40
2019-05-15T08:44:12.969Z,2.80
2019-05-15T08:45:12.995Z,3.40
2019-05-15T08:46:12.970Z,3.30
2019-05-15T08:47:13.066Z,3.00
2019-05-15T08:48:12.925Z,3.00
2019-05-15T08:49:12.916Z,4.20
2019-05-15T08:50:12.901Z,1.60
2019-05-15T08:51:12.918Z,3.40
2019-05-15T08:52:12.884Z,2.20
2019-05-15T08:53:12.874Z,2.80
2019-05-15T08:54:12.858Z,2.10
2019-05-15T08:55:12.857Z,1.90
2019-05-15T08:56:14.755Z,2.70
2019-05-15T08:57:12.831Z,2.00
2019-05-15T08:58:14.098Z,2.50
2019-05-15T08:59:12.830Z,1.70
2019-05-15T09:00:12.795Z,3.50
2019-05-15T09:01:13.288Z,3.70
2019-05-15T09:02:12.790Z,3.70
2019-05-15T09:03:12.861Z,1.80
2019-05-15T09:04:26.606Z,1.60
2019-05-15T09:05:13.722Z,1.30
2019-05-15T09:06:12.766Z,4.80
2019-05-15T09:07:12.741Z,4.40
2019-05-15T09:08:12.696Z,2.80
2019-05-15T09:09:12.686Z,2.50
2019-05-15T09:10:12.680Z,2.70
2019-05-15T09:11:12.711Z,2.00
2019-05-15T09:12:12.655Z,4.00
2019-05-15T09:13:12.642Z,1.50
2019-05-15T09:14:12.676Z,3.10
2019-05-15T09:15:12.619Z,2.20
2019-05-15T09:16:12.655Z,1.70
2019-05-15T09:17:12.644Z,2.50
2019-05-15T09:18:16.144Z,2.30
2019-05-15T09:19:12.572Z,2.10
2019-05-15T09:20:12.593Z,3.10
2019-05-15T09:21:12.569Z,4.10
2019-05-15T09:22:12.593Z,1.80
2019-05-15T09:23:12.538Z,3.00
2019-05-15T09:24:12.523Z,3.70
2019-05-15T09:25:12.510Z,2.20
2019-05-15T09:26:12.510Z,2.90
2019-05-15T09:27:12.528Z,3.70
2019-05-15T09:28:12.522Z,2.90
2019-05-15T09:29:12.478Z,1.20
2019-05-15T09:30:12.533Z,1.60
2019-05-15T09:31:12.445Z,2.10
2019-05-15T09:32:12.726Z,2.00
2019-05-15T09:33:12.489Z,2.40
2019-05-15T09:34:12.481Z,2.10
2019-05-15T09:35:12.400Z,2.50
2019-05-15T09:36:12.403Z,2.80
2019-05-15T09:37:12.394Z,2.30
2019-05-15T09:38:12.412Z,2.40
2019-05-15T09:39:13.506Z,1.80
2019-05-15T09:40:12.357Z,3.30
2019-05-15T09:41:12.328Z,2.50
2019-05-15T09:42:12.330Z,1.50
2019-05-15T09:43:12.323Z,2.40
2019-05-15T09:44:12.348Z,1.90
2019-05-15T09:45:12.304Z,2.90
2019-05-15T09:46:12.346Z,3.70
2019-05-15T09:47:12.278Z,1.50
2019-05-15T09:48:14.743Z,1.60
2019-05-15T09:49:12.281Z,2.30
2019-05-15T09:50:12.252Z,1.90
2019-05-15T09:51:12.225Z,1.30
2019-05-15T09:52:12.224Z,3.40
2019-05-15T09:53:12.210Z,2.80
2019-05-15T09:54:12.230Z,2.40
2019-05-15T09:55:12.213Z,2.80
2019-05-15T09:56:12.185Z,1.80
2019-05-15T09:57:12.168Z,2.50
2019-05-15T09:58:12.164Z,2.90
2019-05-15T09:59:12.166Z,3.40
2019-05-15T10:00:12.243Z,2.60
2019-05-15T10:01:12.122Z,1.70
2019-05-15T10:02:12.145Z,2.80
2019-05-15T10:03:12.107Z,2.20
2019-05-15T10:04:12.119Z,2.10
2019-05-15T10:05:12.070Z,3.70
2019-05-15T10:06:12.069Z,2.20
2019-05-15T10:07:12.069Z,1.60
2019-05-15T10:08:12.066Z,1.30
2019-05-15T10:09:12.027Z,1.80
2019-05-15T10:10:12.035Z,2.70
2019-05-15T10:11:11.999Z,3.10
2019-05-15T10:12:11.998Z,3.30
2019-05-15T10:13:12.009Z,2.50
2019-05-15T10:14:11.971Z,1.50
2019-05-15T10:15:11.978Z,2.40
2019-05-15T10:16:11.954Z,2.90
2019-05-15T10:17:11.949Z,1.90
2019-05-15T10:18:12.090Z,4.10
2019-05-15T10:19:11.907Z,2.00
2019-05-15T10:20:12.122Z,1.70
2019-05-15T10:21:11.931Z,2.60
2019-05-15T10:22:11.901Z,2.10
2019-05-15T10:23:11.885Z,1.50
2019-05-15T10:24:11.970Z,1.50
2019-05-15T10:25:11.893Z,1.90
2019-05-15T10:26:14.241Z,2.40
2019-05-15T10:27:11.823Z,2.40
2019-05-15T10:28:15.118Z,2.60
2019-05-15T10:29:11.839Z,3.20
2019-05-15T10:30:11.917Z,4.00
2019-05-15T10:31:11.782Z,2.50
2019-05-15T10:32:11.780Z,2.00
2019-05-15T10:33:11.777Z,1.90
2019-05-15T10:34:11.892Z,2.60
2019-05-15T10:35:24.717Z,2.20
2019-05-15T10:36:12.735Z,1.60
2019-05-15T10:37:11.723Z,1.60
2019-05-15T10:38:11.720Z,3.40
2019-05-15T10:39:11.753Z,3.10
2019-05-15T10:40:11.681Z,2.50
2019-05-15T10:41:15.133Z,3.50
2019-05-15T10:42:11.672Z,2.50
2019-05-15T10:43:11.657Z,2.10
2019-05-15T10:44:11.681Z,2.30
2019-05-15T10:45:11.637Z,1.70
2019-05-15T10:46:13.034Z,1.20
2019-05-15T10:47:11.636Z,1.60
2019-05-15T10:48:11.620Z,2.90
2019-05-15T10:49:11.648Z,2.50
2019-05-15T10:50:11.626Z,1.70
2019-05-15T10:51:11.582Z,3.20
2019-05-15T10:52:11.639Z,2.40
2019-05-15T10:53:11.557Z,2.80
2019-05-15T10:54:11.559Z,3.40
2019-05-15T10:55:11.553Z,3.30
2019-05-15T10:56:11.519Z,2.10
2019-05-15T10:57:11.613Z,2.30
2019-05-15T10:58:16.630Z,1.40
2019-05-15T10:59:12.542Z,2.10
2019-05-15T11:00:11.507Z,2.80
2019-05-15T11:01:11.659Z,2.00
2019-05-15T11:02:11.448Z,2.80
2019-05-15T11:03:11.552Z,2.70
2019-05-15T11:04:11.438Z,5.50
2019-05-15T11:05:11.542Z,2.30
2019-05-15T11:06:11.497Z,4.10
2019-05-15T11:07:11.573Z,2.30
2019-05-15T11:08:11.378Z,1.80
2019-05-15T11:09:11.592Z,2.10
2019-05-15T11:10:11.521Z,1.90
2019-05-15T11:11:11.419Z,2.70
2019-05-15T11:12:11.352Z,2.00
2019-05-15T11:13:11.408Z,1.60
2019-05-15T11:14:11.336Z,1.80
2019-05-15T11:15:11.575Z,3.90
2019-05-15T11:16:11.303Z,1.40
2019-05-15T11:17:11.335Z,2.20
2019-05-15T11:18:11.276Z,2.50
2019-05-15T11:19:11.351Z,2.30
2019-05-15T11:20:11.278Z,2.70
2019-05-15T11:21:11.260Z,5.20
2019-05-15T11:22:11.240Z,3.10
2019-05-15T11:23:11.283Z,3.10
2019-05-15T11:24:11.232Z,3.10
2019-05-15T11:25:12.253Z,2.20
2019-05-15T11:26:11.181Z,2.20
2019-05-15T11:27:11.311Z,3.20
2019-05-15T11:28:11.178Z,3.20
2019-05-15T11:29:11.240Z,3.50
2019-05-15T11:30:11.191Z,2.70
2019-05-15T11:31:11.266Z,1.80
2019-05-15T11:32:11.116Z,2.90
2019-05-15T11:33:11.139Z,2.10
2019-05-15T11:34:11.100Z,3.70
2019-05-15T11:35:11.155Z,1.80
2019-05-15T11:36:11.128Z,2.60
2019-05-15T11:37:11.188Z,2.20
2019-05-15T11:38:11.085Z,1.80
2019-05-15T11:39:11.084Z,1.80
2019-05-15T11:40:11.487Z,2.40
2019-05-15T11:41:11.117Z,2.30
2019-05-15T11:42:11.079Z,2.40
2019-05-15T11:43:11.112Z,1.90
2019-05-15T11:44:10.991Z,3.20
2019-05-15T11:45:11.026Z,3.80
2019-05-15T11:46:11.002Z,2.30
2019-05-15T11:47:11.083Z,3.00
2019-05-15T11:48:10.942Z,1.90
2019-05-15T11:49:11.041Z,2.10
2019-05-15T11:50:10.932Z,3.70
2019-05-15T11:51:10.969Z,6.20
2019-05-15T11:52:10.905Z,2.30
2019-05-15T11:53:10.970Z,2.90
2019-05-15T11:54:10.876Z,2.00
2019-05-15T11:55:11.007Z,2.30
2019-05-15T11:56:10.902Z,2.00
2019-05-15T11:57:10.953Z,2.10
2019-05-15T11:58:10.834Z,3.70
2019-05-15T11:59:10.946Z,2.50
2019-05-15T12:00:17.186Z,3.30
2019-05-15T12:01:11.862Z,3.80
2019-05-15T12:02:10.847Z,2.90
2019-05-15T12:03:10.790Z,2.30
2019-05-15T12:04:25.429Z,1.70
2019-05-15T12:05:11.767Z,2.70
2019-05-15T12:06:18.552Z,2.90
2019-05-15T12:07:11.805Z,3.10
2019-05-15T12:08:12.652Z,2.60
2019-05-15T12:09:10.735Z,1.20
2019-05-15T12:10:11.129Z,1.80
2019-05-15T12:11:27.023Z,3.10
2019-05-15T12:12:12.466Z,1.70
2019-05-15T12:13:10.707Z,4.80
2019-05-15T12:14:10.679Z,1.80
2019-05-15T12:15:10.719Z,1.70
2019-05-15T12:16:10.654Z,3.60
2019-05-15T12:17:15.231Z,1.80
2019-05-15T12:18:10.622Z,1.70
2019-05-15T12:19:17.030Z,2.30
2019-05-15T12:20:11.616Z,3.70
2019-05-15T12:21:11.071Z,2.60
2019-05-15T12:22:10.650Z,1.70
2019-05-15T12:23:11.095Z,2.60
2019-05-15T12:24:10.691Z,2.00
2019-05-15T12:25:10.683Z,1.70
2019-05-15T12:26:10.539Z,2.90
2019-05-15T12:27:17.861Z,3.00
2019-05-15T12:28:11.542Z,1.30
2019-05-15T12:29:10.613Z,3.70
2019-05-15T12:30:10.498Z,2.50
2019-05-15T12:31:10.523Z,1.70
2019-05-15T12:32:25.166Z,2.90
2019-05-15T12:33:11.567Z,3.00
2019-05-15T12:34:10.710Z,1.50
2019-05-15T12:35:10.443Z,4.30
2019-05-15T12:36:11.056Z,4.30
2019-05-15T12:37:10.445Z,1.90
2019-05-15T12:38:10.534Z,6.40
2019-05-15T12:39:13.641Z,4.00
2019-05-15T13:00:11.168Z,3.40
2019-05-15T13:01:17.032Z,2.80
2019-05-15T13:02:11.298Z,3.40
2019-05-15T13:03:10.153Z,3.50
2019-05-15T13:04:10.271Z,2.60
2019-05-15T13:05:10.165Z,4.60
2019-05-15T13:06:10.148Z,3.20
2019-05-15T13:07:12.725Z,5.30
2019-05-15T13:08:10.207Z,2.80
2019-05-15T13:09:10.071Z,2.90
2019-05-15T13:10:10.181Z,2.40
2019-05-15T13:11:14.959Z,2.70
2019-05-15T13:12:11.117Z,2.00
2019-05-15T13:13:10.141Z,3.80
2019-05-15T13:14:10.109Z,3.80
2019-05-15T13:15:10.030Z,4.80
2019-05-15T13:16:10.022Z,3.40
2019-05-15T13:17:09.980Z,1.80
2019-05-15T13:18:13.761Z,2.40
2019-05-15T13:19:09.968Z,7.10
2019-05-15T13:20:10.070Z,4.00
2019-05-15T13:21:09.943Z,2.80
2019-05-15T13:22:17.604Z,3.30
2019-05-15T13:23:10.979Z,3.40
2019-05-15T13:24:10.008Z,2.50
2019-05-15T13:25:09.891Z,3.90
2019-05-15T13:26:23.035Z,3.20
2019-05-15T13:27:10.898Z,2.70
2019-05-15T13:28:09.901Z,2.80
2019-05-15T13:29:09.893Z,3.90
2019-05-15T13:30:09.929Z,2.60
2019-05-15T13:31:09.834Z,3.80
2019-05-15T13:32:09.934Z,3.40
2019-05-15T13:33:10.482Z,5.40
2019-05-15T13:34:09.877Z,2.60
2019-05-15T13:35:10.349Z,4.00
2019-05-15T13:36:09.846Z,2.80
2019-05-15T13:37:09.753Z,3.10
2019-05-15T13:38:10.385Z,3.10
2019-05-15T13:39:09.784Z,1.90
2019-05-15T13:40:09.804Z,2.10
2019-05-15T13:41:09.720Z,6.40
2019-05-15T13:42:09.790Z,3.20
2019-05-15T13:43:09.684Z,4.50
2019-05-15T13:44:09.700Z,3.00
2019-05-15T13:45:13.201Z,4.30
2019-05-15T13:46:09.715Z,2.80
2019-05-15T13:47:09.637Z,3.80
2019-05-15T13:48:09.731Z,4.00
2019-05-15T13:49:09.618Z,2.40
2019-05-15T13:50:09.738Z,2.90
2019-05-15T13:51:09.608Z,5.00
2019-05-15T13:52:09.668Z,4.00
2019-05-15T13:53:11.158Z,2.20
2019-05-15T13:54:09.677Z,3.10
2019-05-15T13:55:09.578Z,1.40
2019-05-15T13:56:09.586Z,2.30
2019-05-15T13:57:09.535Z,4.00
2019-05-15T13:58:09.604Z,3.00
2019-05-15T13:59:09.520Z,3.60
2019-05-15T14:00:09.643Z,2.60